sensor_id;sensor_type;location;lat;lon;timestamp;temperature;humidity
5394;DHT22;2720;52.396;10.064;2023-04-12T00:00:24;3.50;99.90
5394;DHT22;2720;52.396;10.064;2023-04-12T00:02:51;3.50;99.90
5394;DHT22;2720;52.396;10.064;2023-04-12T00:05:19;3.50;99.90
5394;DHT22;2720;52.396;10.064;2023-04-12T00:07:47;3.60;99.90
5394;DHT22;2720;52.396;10.064;2023-04-12T00:10:20;3.70;99.90
5394;DHT22;2720;52.396;10.064;2023-04-12T00:12:47;3.70;99.90
5394;DHT22;2720;52.396;10.064;2023-04-12T00:15:15;3.60;99.90
5394;DHT22;2720;52.396;10.064;2023-04-12T00:17:42;3.70;99.90
5394;DHT22;2720;52.396;10.064;2023-04-12T00:20:10;3.70;99.90
5394;DHT22;2720;52.396;10.064;2023-04-12T00:22:37;3.70;99.90
5394;DHT22;2720;52.396;10.064;2023-04-12T00:25:04;3.60;99.90
5394;DHT22;2720;52.396;10.064;2023-04-12T00:27:33;3.60;99.90
5394;DHT22;2720;52.396;10.064;2023-04-12T00:30:00;3.60;99.90
5394;DHT22;2720;52.396;10.064;2023-04-12T00:32:27;3.90;99.90
5394;DHT22;2720;52.396;10.064;2023-04-12T00:34:54;3.60;99.90
5394;DHT22;2720;52.396;10.064;2023-04-12T00:37:21;3.60;99.90
5394;DHT22;2720;52.396;10.064;2023-04-12T00:39:48;3.70;99.90
5394;DHT22;2720;52.396;10.064;2023-04-12T00:42:15;3.70;99.90
5394;DHT22;2720;52.396;10.064;2023-04-12T00:44:44;3.70;99.90
5394;DHT22;2720;52.396;10.064;2023-04-12T00:47:10;3.70;99.90
5394;DHT22;2720;52.396;10.064;2023-04-12T00:49:37;3.80;99.90
5394;DHT22;2720;52.396;10.064;2023-04-12T00:52:07;3.80;99.90
5394;DHT22;2720;52.396;10.064;2023-04-12T00:54:35;3.90;99.90
5394;DHT22;2720;52.396;10.064;2023-04-12T00:57:03;3.80;99.90
5394;DHT22;2720;52.396;10.064;2023-04-12T00:59:30;3.70;99.90
5394;DHT22;2720;52.396;10.064;2023-04-12T01:01:58;3.80;99.90
5394;DHT22;2720;52.396;10.064;2023-04-12T01:04:26;3.80;99.90
5394;DHT22;2720;52.396;10.064;2023-04-12T01:07:04;3.90;99.90
5394;DHT22;2720;52.396;10.064;2023-04-12T01:09:37;3.80;99.90
5394;DHT22;2720;52.396;10.064;2023-04-12T01:12:19;3.90;99.90
5394;DHT22;2720;52.396;10.064;2023-04-12T01:14:53;3.90;99.90
5394;DHT22;2720;52.396;10.064;2023-04-12T01:17:27;3.90;99.90
5394;DHT22;2720;52.396;10.064;2023-04-12T01:19:59;3.90;99.90
5394;DHT22;2720;52.396;10.064;2023-04-12T01:22:51;3.90;99.90
5394;DHT22;2720;52.396;10.064;2023-04-12T01:25:34;4.00;99.90
5394;DHT22;2720;52.396;10.064;2023-04-12T01:28:06;4.00;99.90
5394;DHT22;2720;52.396;10.064;2023-04-12T01:30:35;4.00;99.90
5394;DHT22;2720;52.396;10.064;2023-04-12T01:33:05;3.90;99.90
5394;DHT22;2720;52.396;10.064;2023-04-12T01:35:32;3.90;99.90
5394;DHT22;2720;52.396;10.064;2023-04-12T01:38:00;3.90;99.90
5394;DHT22;2720;52.396;10.064;2023-04-12T01:40:28;3.90;99.90
5394;DHT22;2720;52.396;10.064;2023-04-12T01:43:08;3.80;99.90
5394;DHT22;2720;52.396;10.064;2023-04-12T01:45:35;3.80;99.90
5394;DHT22;2720;52.396;10.064;2023-04-12T01:48:03;3.80;99.90
5394;DHT22;2720;52.396;10.064;2023-04-12T01:50:38;3.80;99.90
5394;DHT22;2720;52.396;10.064;2023-04-12T01:53:09;3.70;99.90
5394;DHT22;2720;52.396;10.064;2023-04-12T01:55:38;3.70;99.90
5394;DHT22;2720;52.396;10.064;2023-04-12T01:58:09;3.70;99.90
5394;DHT22;2720;52.396;10.064;2023-04-12T02:00:38;3.70;99.90
5394;DHT22;2720;52.396;10.064;2023-04-12T02:03:07;3.70;99.90
5394;DHT22;2720;52.396;10.064;2023-04-12T02:05:34;3.70;99.90
5394;DHT22;2720;52.396;10.064;2023-04-12T02:08:02;3.80;99.90
5394;DHT22;2720;52.396;10.064;2023-04-12T02:10:30;3.70;99.90
5394;DHT22;2720;52.396;10.064;2023-04-12T02:12:58;3.70;99.90
5394;DHT22;2720;52.396;10.064;2023-04-12T02:15:27;3.70;99.90
5394;DHT22;2720;52.396;10.064;2023-04-12T02:17:54;3.70;99.90
5394;DHT22;2720;52.396;10.064;2023-04-12T02:20:24;3.70;99.90
5394;DHT22;2720;52.396;10.064;2023-04-12T02:22:51;3.70;99.90
5394;DHT22;2720;52.396;10.064;2023-04-12T02:25:18;3.60;99.90
5394;DHT22;2720;52.396;10.064;2023-04-12T02:27:45;3.60;99.90
5394;DHT22;2720;52.396;10.064;2023-04-12T02:30:13;3.60;99.90
5394;DHT22;2720;52.396;10.064;2023-04-12T02:32:41;3.60;99.90
5394;DHT22;2720;52.396;10.064;2023-04-12T02:35:12;3.60;99.90
5394;DHT22;2720;52.396;10.064;2023-04-12T02:37:43;3.60;99.90
5394;DHT22;2720;52.396;10.064;2023-04-12T02:40:11;3.50;99.90
5394;DHT22;2720;52.396;10.064;2023-04-12T02:42:40;3.50;99.90
5394;DHT22;2720;52.396;10.064;2023-04-12T02:45:09;3.50;99.90
5394;DHT22;2720;52.396;10.064;2023-04-12T02:47:36;3.50;99.90
5394;DHT22;2720;52.396;10.064;2023-04-12T02:50:07;3.60;99.90
5394;DHT22;2720;52.396;10.064;2023-04-12T02:52:34;3.60;99.90
5394;DHT22;2720;52.396;10.064;2023-04-12T02:55:01;3.60;99.90
5394;DHT22;2720;52.396;10.064;2023-04-12T02:57:28;3.60;99.90
5394;DHT22;2720;52.396;10.064;2023-04-12T02:59:55;3.60;99.90
5394;DHT22;2720;52.396;10.064;2023-04-12T03:02:22;3.60;99.90
5394;DHT22;2720;52.396;10.064;2023-04-12T03:04:50;3.50;99.90
5394;DHT22;2720;52.396;10.064;2023-04-12T03:07:19;3.50;99.90
5394;DHT22;2720;52.396;10.064;2023-04-12T03:09:48;3.60;99.90
5394;DHT22;2720;52.396;10.064;2023-04-12T03:12:15;3.60;99.90
5394;DHT22;2720;52.396;10.064;2023-04-12T03:14:42;3.60;99.90
5394;DHT22;2720;52.396;10.064;2023-04-12T03:17:09;3.60;99.90
5394;DHT22;2720;52.396;10.064;2023-04-12T03:19:36;3.60;99.90
5394;DHT22;2720;52.396;10.064;2023-04-12T03:22:04;3.70;99.90
5394;DHT22;2720;52.396;10.064;2023-04-12T03:24:33;3.60;99.90
5394;DHT22;2720;52.396;10.064;2023-04-12T03:27:00;3.60;99.90
5394;DHT22;2720;52.396;10.064;2023-04-12T03:29:28;3.60;99.90
5394;DHT22;2720;52.396;10.064;2023-04-12T03:31:55;3.60;99.90
5394;DHT22;2720;52.396;10.064;2023-04-12T03:34:24;3.70;99.90
5394;DHT22;2720;52.396;10.064;2023-04-12T03:36:53;3.70;99.90
5394;DHT22;2720;52.396;10.064;2023-04-12T03:39:20;3.70;99.90
5394;DHT22;2720;52.396;10.064;2023-04-12T03:41:49;3.70;99.90
5394;DHT22;2720;52.396;10.064;2023-04-12T03:44:17;3.70;99.90
5394;DHT22;2720;52.396;10.064;2023-04-12T03:46:44;3.70;99.90
5394;DHT22;2720;52.396;10.064;2023-04-12T03:49:11;3.80;99.90
5394;DHT22;2720;52.396;10.064;2023-04-12T03:51:38;3.80;99.90
5394;DHT22;2720;52.396;10.064;2023-04-12T03:54:08;3.80;99.90
5394;DHT22;2720;52.396;10.064;2023-04-12T03:56:35;3.80;99.90
5394;DHT22;2720;52.396;10.064;2023-04-12T03:59:05;3.80;99.90
5394;DHT22;2720;52.396;10.064;2023-04-12T04:01:32;3.80;99.90
5394;DHT22;2720;52.396;10.064;2023-04-12T04:03:59;3.80;99.90
5394;DHT22;2720;52.396;10.064;2023-04-12T04:06:26;3.80;99.90
5394;DHT22;2720;52.396;10.064;2023-04-12T04:08:54;3.80;99.90
5394;DHT22;2720;52.396;10.064;2023-04-12T04:11:22;3.80;99.90
5394;DHT22;2720;52.396;10.064;2023-04-12T04:13:49;3.80;99.90
5394;DHT22;2720;52.396;10.064;2023-04-12T04:16:17;3.90;99.90
5394;DHT22;2720;52.396;10.064;2023-04-12T04:18:45;3.80;99.90
5394;DHT22;2720;52.396;10.064;2023-04-12T04:21:12;3.90;99.90
5394;DHT22;2720;52.396;10.064;2023-04-12T04:23:40;3.90;99.90
5394;DHT22;2720;52.396;10.064;2023-04-12T04:26:10;3.90;99.90
5394;DHT22;2720;52.396;10.064;2023-04-12T04:28:39;3.90;99.90
5394;DHT22;2720;52.396;10.064;2023-04-12T04:31:10;3.90;99.90
5394;DHT22;2720;52.396;10.064;2023-04-12T04:33:39;3.90;99.90
5394;DHT22;2720;52.396;10.064;2023-04-12T04:36:07;4.00;99.90
5394;DHT22;2720;52.396;10.064;2023-04-12T04:38:34;4.00;99.90
5394;DHT22;2720;52.396;10.064;2023-04-12T04:41:02;4.00;99.90
5394;DHT22;2720;52.396;10.064;2023-04-12T04:43:29;4.00;99.90
5394;DHT22;2720;52.396;10.064;2023-04-12T04:45:58;4.10;99.90
5394;DHT22;2720;52.396;10.064;2023-04-12T04:48:26;4.10;99.90
5394;DHT22;2720;52.396;10.064;2023-04-12T04:50:55;4.10;99.90
5394;DHT22;2720;52.396;10.064;2023-04-12T04:53:22;4.10;99.90
5394;DHT22;2720;52.396;10.064;2023-04-12T04:55:56;4.10;99.90
5394;DHT22;2720;52.396;10.064;2023-04-12T04:58:24;4.00;99.90
5394;DHT22;2720;52.396;10.064;2023-04-12T05:00:50;4.10;99.90
5394;DHT22;2720;52.396;10.064;2023-04-12T05:03:20;4.10;99.90
5394;DHT22;2720;52.396;10.064;2023-04-12T05:05:47;4.10;99.90
5394;DHT22;2720;52.396;10.064;2023-04-12T05:08:16;4.10;99.90
5394;DHT22;2720;52.396;10.064;2023-04-12T05:10:43;4.10;99.90
5394;DHT22;2720;52.396;10.064;2023-04-12T05:13:09;4.20;99.90
5394;DHT22;2720;52.396;10.064;2023-04-12T05:15:39;4.20;99.90
5394;DHT22;2720;52.396;10.064;2023-04-12T05:18:06;4.20;99.90
5394;DHT22;2720;52.396;10.064;2023-04-12T05:20:33;4.30;99.90
5394;DHT22;2720;52.396;10.064;2023-04-12T05:23:01;4.40;99.90
5394;DHT22;2720;52.396;10.064;2023-04-12T05:25:29;4.50;99.90
5394;DHT22;2720;52.396;10.064;2023-04-12T05:27:57;3.70;99.90
5394;DHT22;2720;52.396;10.064;2023-04-12T05:30:24;5.10;99.90
5394;DHT22;2720;52.396;10.064;2023-04-12T05:32:51;5.50;99.90
5394;DHT22;2720;52.396;10.064;2023-04-12T05:35:18;5.90;99.90
5394;DHT22;2720;52.396;10.064;2023-04-12T05:37:45;6.10;99.90
5394;DHT22;2720;52.396;10.064;2023-04-12T05:40:12;6.50;99.90
5394;DHT22;2720;52.396;10.064;2023-04-12T05:42:40;6.60;99.90
5394;DHT22;2720;52.396;10.064;2023-04-12T05:45:08;6.70;99.90
5394;DHT22;2720;52.396;10.064;2023-04-12T05:47:36;6.80;99.90
5394;DHT22;2720;52.396;10.064;2023-04-12T05:50:03;6.80;99.90
5394;DHT22;2720;52.396;10.064;2023-04-12T05:52:31;6.70;99.90
5394;DHT22;2720;52.396;10.064;2023-04-12T05:54:58;6.60;99.90
5394;DHT22;2720;52.396;10.064;2023-04-12T05:57:25;6.60;99.90
5394;DHT22;2720;52.396;10.064;2023-04-12T05:59:53;6.60;99.90
5394;DHT22;2720;52.396;10.064;2023-04-12T06:02:20;6.60;99.90
5394;DHT22;2720;52.396;10.064;2023-04-12T06:04:50;6.60;99.90
5394;DHT22;2720;52.396;10.064;2023-04-12T06:07:18;7.60;99.90
5394;DHT22;2720;52.396;10.064;2023-04-12T06:09:45;6.70;99.90
5394;DHT22;2720;52.396;10.064;2023-04-12T06:12:14;6.80;99.90
5394;DHT22;2720;52.396;10.064;2023-04-12T06:14:41;6.90;99.90
5394;DHT22;2720;52.396;10.064;2023-04-12T06:17:09;6.90;99.90
5394;DHT22;2720;52.396;10.064;2023-04-12T06:19:36;6.90;99.90
5394;DHT22;2720;52.396;10.064;2023-04-12T06:22:03;6.90;99.90
5394;DHT22;2720;52.396;10.064;2023-04-12T06:24:30;6.90;99.90
5394;DHT22;2720;52.396;10.064;2023-04-12T06:26:57;7.00;99.90
5394;DHT22;2720;52.396;10.064;2023-04-12T06:29:24;7.10;99.90
5394;DHT22;2720;52.396;10.064;2023-04-12T06:31:51;7.10;99.90
5394;DHT22;2720;52.396;10.064;2023-04-12T06:34:19;7.30;99.90
5394;DHT22;2720;52.396;10.064;2023-04-12T06:36:46;7.30;99.90
5394;DHT22;2720;52.396;10.064;2023-04-12T06:39:13;7.40;99.90
5394;DHT22;2720;52.396;10.064;2023-04-12T06:41:41;7.60;99.90
5394;DHT22;2720;52.396;10.064;2023-04-12T06:44:11;7.70;99.90
5394;DHT22;2720;52.396;10.064;2023-04-12T06:46:38;7.80;99.90
5394;DHT22;2720;52.396;10.064;2023-04-12T06:49:05;8.00;99.90
5394;DHT22;2720;52.396;10.064;2023-04-12T06:51:34;8.10;99.90
5394;DHT22;2720;52.396;10.064;2023-04-12T06:54:01;8.20;99.90
5394;DHT22;2720;52.396;10.064;2023-04-12T06:56:28;8.40;99.90
5394;DHT22;2720;52.396;10.064;2023-04-12T06:58:55;8.50;99.90
5394;DHT22;2720;52.396;10.064;2023-04-12T07:03:50;8.90;99.90
5394;DHT22;2720;52.396;10.064;2023-04-12T07:06:17;9.30;99.90
5394;DHT22;2720;52.396;10.064;2023-04-12T07:08:46;9.50;99.90
5394;DHT22;2720;52.396;10.064;2023-04-12T07:11:13;9.70;99.90
5394;DHT22;2720;52.396;10.064;2023-04-12T07:13:40;9.90;99.90
5394;DHT22;2720;52.396;10.064;2023-04-12T07:16:07;10.00;99.90
5394;DHT22;2720;52.396;10.064;2023-04-12T07:18:34;10.30;99.90
5394;DHT22;2720;52.396;10.064;2023-04-12T07:21:01;10.50;99.90
5394;DHT22;2720;52.396;10.064;2023-04-12T07:23:28;10.70;99.90
5394;DHT22;2720;52.396;10.064;2023-04-12T07:25:59;10.70;99.90
5394;DHT22;2720;52.396;10.064;2023-04-12T07:28:26;10.70;99.90
5394;DHT22;2720;52.396;10.064;2023-04-12T07:30:53;10.70;99.90
5394;DHT22;2720;52.396;10.064;2023-04-12T07:33:20;10.70;99.90
5394;DHT22;2720;52.396;10.064;2023-04-12T07:35:47;10.70;99.90
5394;DHT22;2720;52.396;10.064;2023-04-12T07:38:14;10.50;99.90
5394;DHT22;2720;52.396;10.064;2023-04-12T07:40:41;10.50;99.90
5394;DHT22;2720;52.396;10.064;2023-04-12T07:43:09;10.40;99.90
5394;DHT22;2720;52.396;10.064;2023-04-12T07:45:36;10.40;99.90
5394;DHT22;2720;52.396;10.064;2023-04-12T07:48:04;10.40;99.90
5394;DHT22;2720;52.396;10.064;2023-04-12T07:50:31;10.50;99.90
5394;DHT22;2720;52.396;10.064;2023-04-12T07:53:16;10.70;99.90
5394;DHT22;2720;52.396;10.064;2023-04-12T07:55:44;11.10;99.90
5394;DHT22;2720;52.396;10.064;2023-04-12T07:58:12;11.50;99.90
5394;DHT22;2720;52.396;10.064;2023-04-12T08:00:39;11.90;99.90
5394;DHT22;2720;52.396;10.064;2023-04-12T08:03:06;12.30;99.90
5394;DHT22;2720;52.396;10.064;2023-04-12T08:05:33;12.50;99.90
5394;DHT22;2720;52.396;10.064;2023-04-12T08:08:00;12.90;99.90
5394;DHT22;2720;52.396;10.064;2023-04-12T08:10:28;13.10;99.90
5394;DHT22;2720;52.396;10.064;2023-04-12T08:12:55;13.20;99.90
5394;DHT22;2720;52.396;10.064;2023-04-12T08:15:23;13.90;99.90
5394;DHT22;2720;52.396;10.064;2023-04-12T08:17:50;13.70;99.90
5394;DHT22;2720;52.396;10.064;2023-04-12T08:20:18;13.90;99.90
5394;DHT22;2720;52.396;10.064;2023-04-12T08:22:45;14.00;99.90
5394;DHT22;2720;52.396;10.064;2023-04-12T08:25:12;13.90;99.90
5394;DHT22;2720;52.396;10.064;2023-04-12T08:27:41;13.70;99.90
5394;DHT22;2720;52.396;10.064;2023-04-12T08:30:10;13.70;99.90
5394;DHT22;2720;52.396;10.064;2023-04-12T08:32:40;13.80;99.90
5394;DHT22;2720;52.396;10.064;2023-04-12T08:35:08;13.40;99.90
5394;DHT22;2720;52.396;10.064;2023-04-12T08:37:35;13.40;99.90
5394;DHT22;2720;52.396;10.064;2023-04-12T08:40:04;13.10;99.90
5394;DHT22;2720;52.396;10.064;2023-04-12T08:42:33;12.80;99.90
5394;DHT22;2720;52.396;10.064;2023-04-12T08:45:04;12.50;99.90
5394;DHT22;2720;52.396;10.064;2023-04-12T08:47:32;12.40;99.90
5394;DHT22;2720;52.396;10.064;2023-04-12T08:50:01;12.60;99.90
5394;DHT22;2720;52.396;10.064;2023-04-12T08:52:31;12.50;99.90
5394;DHT22;2720;52.396;10.064;2023-04-12T08:55:01;12.40;99.90
5394;DHT22;2720;52.396;10.064;2023-04-12T08:57:28;12.10;99.90
5394;DHT22;2720;52.396;10.064;2023-04-12T08:59:58;11.90;99.90
5394;DHT22;2720;52.396;10.064;2023-04-12T09:02:26;11.80;99.90
5394;DHT22;2720;52.396;10.064;2023-04-12T09:04:53;11.70;99.90
5394;DHT22;2720;52.396;10.064;2023-04-12T09:07:22;11.60;99.90
5394;DHT22;2720;52.396;10.064;2023-04-12T09:09:53;11.60;99.90
5394;DHT22;2720;52.396;10.064;2023-04-12T09:12:20;11.50;99.90
5394;DHT22;2720;52.396;10.064;2023-04-12T09:15:04;11.30;99.90
5394;DHT22;2720;52.396;10.064;2023-04-12T09:17:33;11.20;99.90
5394;DHT22;2720;52.396;10.064;2023-04-12T09:20:26;11.20;99.90
5394;DHT22;2720;52.396;10.064;2023-04-12T09:22:54;11.00;99.90
5394;DHT22;2720;52.396;10.064;2023-04-12T09:25:38;10.70;99.90
5394;DHT22;2720;52.396;10.064;2023-04-12T09:28:22;10.60;99.90
5394;DHT22;2720;52.396;10.064;2023-04-12T09:30:50;10.40;99.90
5394;DHT22;2720;52.396;10.064;2023-04-12T09:33:19;10.20;99.90
5394;DHT22;2720;52.396;10.064;2023-04-12T09:35:46;10.00;99.90
5394;DHT22;2720;52.396;10.064;2023-04-12T09:38:15;9.80;99.90
5394;DHT22;2720;52.396;10.064;2023-04-12T09:40:42;9.50;99.90
5394;DHT22;2720;52.396;10.064;2023-04-12T09:43:09;9.30;99.90
5394;DHT22;2720;52.396;10.064;2023-04-12T09:45:37;9.10;99.90
5394;DHT22;2720;52.396;10.064;2023-04-12T09:48:06;9.10;99.90
5394;DHT22;2720;52.396;10.064;2023-04-12T09:50:44;9.00;99.90
5394;DHT22;2720;52.396;10.064;2023-04-12T09:53:16;8.90;99.90
5394;DHT22;2720;52.396;10.064;2023-04-12T09:55:45;8.80;99.90
5394;DHT22;2720;52.396;10.064;2023-04-12T09:58:17;8.80;99.90
5394;DHT22;2720;52.396;10.064;2023-04-12T10:00:46;8.80;99.90
5394;DHT22;2720;52.396;10.064;2023-04-12T10:03:13;9.00;99.90
5394;DHT22;2720;52.396;10.064;2023-04-12T10:05:40;9.00;99.90
5394;DHT22;2720;52.396;10.064;2023-04-12T10:08:10;9.00;99.90
5394;DHT22;2720;52.396;10.064;2023-04-12T10:10:39;9.10;99.90
5394;DHT22;2720;52.396;10.064;2023-04-12T10:13:06;9.00;99.90
5394;DHT22;2720;52.396;10.064;2023-04-12T10:15:35;9.10;99.90
5394;DHT22;2720;52.396;10.064;2023-04-12T10:18:03;9.20;99.90
5394;DHT22;2720;52.396;10.064;2023-04-12T10:20:32;9.20;99.90
5394;DHT22;2720;52.396;10.064;2023-04-12T10:22:59;9.20;99.90
5394;DHT22;2720;52.396;10.064;2023-04-12T10:25:27;9.20;99.90
5394;DHT22;2720;52.396;10.064;2023-04-12T10:27:56;9.10;99.90
5394;DHT22;2720;52.396;10.064;2023-04-12T10:30:38;9.00;99.90
5394;DHT22;2720;52.396;10.064;2023-04-12T10:33:13;9.00;99.90
5394;DHT22;2720;52.396;10.064;2023-04-12T10:35:59;8.90;99.90
5394;DHT22;2720;52.396;10.064;2023-04-12T10:38:29;8.80;99.90
5394;DHT22;2720;52.396;10.064;2023-04-12T10:41:17;8.80;99.90
5394;DHT22;2720;52.396;10.064;2023-04-12T10:43:46;8.80;99.90
5394;DHT22;2720;52.396;10.064;2023-04-12T10:46:49;8.80;99.90
5394;DHT22;2720;52.396;10.064;2023-04-12T10:49:16;8.90;99.90
5394;DHT22;2720;52.396;10.064;2023-04-12T10:52:12;8.90;99.90
5394;DHT22;2720;52.396;10.064;2023-04-12T10:54:40;9.10;99.90
5394;DHT22;2720;52.396;10.064;2023-04-12T10:57:41;9.20;99.90
5394;DHT22;2720;52.396;10.064;2023-04-12T11:00:11;9.40;99.90
5394;DHT22;2720;52.396;10.064;2023-04-12T11:03:07;9.40;99.90
5394;DHT22;2720;52.396;10.064;2023-04-12T11:05:59;9.20;99.90
5394;DHT22;2720;52.396;10.064;2023-04-12T11:08:27;9.20;99.90
5394;DHT22;2720;52.396;10.064;2023-04-12T11:11:01;9.30;99.90
5394;DHT22;2720;52.396;10.064;2023-04-12T11:13:31;9.40;99.90
5394;DHT22;2720;52.396;10.064;2023-04-12T11:16:02;9.40;99.90
5394;DHT22;2720;52.396;10.064;2023-04-12T11:18:29;9.40;99.90
5394;DHT22;2720;52.396;10.064;2023-04-12T11:20:58;9.30;99.90
5394;DHT22;2720;52.396;10.064;2023-04-12T11:23:25;9.20;99.90
5394;DHT22;2720;52.396;10.064;2023-04-12T11:25:53;9.20;99.90
5394;DHT22;2720;52.396;10.064;2023-04-12T11:28:20;9.20;99.90
5394;DHT22;2720;52.396;10.064;2023-04-12T11:30:51;9.10;99.90
5394;DHT22;2720;52.396;10.064;2023-04-12T11:33:33;9.10;99.90
5394;DHT22;2720;52.396;10.064;2023-04-12T11:36:05;9.10;99.90
5394;DHT22;2720;52.396;10.064;2023-04-12T11:38:34;9.20;99.90
5394;DHT22;2720;52.396;10.064;2023-04-12T11:41:03;9.30;99.90
5394;DHT22;2720;52.396;10.064;2023-04-12T11:43:31;9.40;99.90
5394;DHT22;2720;52.396;10.064;2023-04-12T11:45:59;9.30;99.90
5394;DHT22;2720;52.396;10.064;2023-04-12T11:48:26;9.30;99.90
5394;DHT22;2720;52.396;10.064;2023-04-12T11:50:55;9.20;99.90
5394;DHT22;2720;52.396;10.064;2023-04-12T11:53:26;9.20;99.90
5394;DHT22;2720;52.396;10.064;2023-04-12T11:55:55;9.20;99.90
5394;DHT22;2720;52.396;10.064;2023-04-12T11:58:22;9.20;99.90
5394;DHT22;2720;52.396;10.064;2023-04-12T12:00:49;9.10;99.90
5394;DHT22;2720;52.396;10.064;2023-04-12T12:03:17;9.10;99.90
5394;DHT22;2720;52.396;10.064;2023-04-12T12:05:45;9.10;99.90
5394;DHT22;2720;52.396;10.064;2023-04-12T12:08:14;9.10;99.90
5394;DHT22;2720;52.396;10.064;2023-04-12T12:10:41;9.30;99.90
5394;DHT22;2720;52.396;10.064;2023-04-12T12:13:09;9.30;99.90
5394;DHT22;2720;52.396;10.064;2023-04-12T12:15:37;9.30;99.90
5394;DHT22;2720;52.396;10.064;2023-04-12T12:18:06;9.20;99.90
5394;DHT22;2720;52.396;10.064;2023-04-12T12:20:39;9.10;99.90
5394;DHT22;2720;52.396;10.064;2023-04-12T12:23:06;9.10;99.90
5394;DHT22;2720;52.396;10.064;2023-04-12T12:25:35;9.10;99.90
5394;DHT22;2720;52.396;10.064;2023-04-12T12:28:02;9.00;99.90
5394;DHT22;2720;52.396;10.064;2023-04-12T12:30:30;9.10;99.90
5394;DHT22;2720;52.396;10.064;2023-04-12T12:32:57;9.20;99.90
5394;DHT22;2720;52.396;10.064;2023-04-12T12:35:24;9.20;99.90
5394;DHT22;2720;52.396;10.064;2023-04-12T12:37:53;9.20;99.90
5394;DHT22;2720;52.396;10.064;2023-04-12T12:40:28;9.40;99.90
5394;DHT22;2720;52.396;10.064;2023-04-12T12:42:58;9.40;99.90
5394;DHT22;2720;52.396;10.064;2023-04-12T12:45:26;9.50;99.90
5394;DHT22;2720;52.396;10.064;2023-04-12T12:47:56;9.60;99.90
5394;DHT22;2720;52.396;10.064;2023-04-12T12:50:25;9.70;99.90
5394;DHT22;2720;52.396;10.064;2023-04-12T12:52:52;9.70;99.90
5394;DHT22;2720;52.396;10.064;2023-04-12T12:55:21;9.80;99.90
5394;DHT22;2720;52.396;10.064;2023-04-12T12:57:50;9.70;99.90
5394;DHT22;2720;52.396;10.064;2023-04-12T13:00:21;9.70;99.90
5394;DHT22;2720;52.396;10.064;2023-04-12T13:02:49;9.80;99.90
5394;DHT22;2720;52.396;10.064;2023-04-12T13:05:18;9.80;99.90
5394;DHT22;2720;52.396;10.064;2023-04-12T13:07:46;9.70;99.90
5394;DHT22;2720;52.396;10.064;2023-04-12T13:10:13;9.60;99.90
5394;DHT22;2720;52.396;10.064;2023-04-12T13:12:40;9.60;99.90
5394;DHT22;2720;52.396;10.064;2023-04-12T13:15:08;9.50;99.90
5394;DHT22;2720;52.396;10.064;2023-04-12T13:17:37;9.70;99.90
5394;DHT22;2720;52.396;10.064;2023-04-12T13:20:05;9.70;99.90
5394;DHT22;2720;52.396;10.064;2023-04-12T13:22:33;9.70;99.90
5394;DHT22;2720;52.396;10.064;2023-04-12T13:25:00;9.70;99.90
5394;DHT22;2720;52.396;10.064;2023-04-12T13:27:27;9.80;99.90
5394;DHT22;2720;52.396;10.064;2023-04-12T13:29:54;9.80;99.90
5394;DHT22;2720;52.396;10.064;2023-04-12T13:32:20;9.70;99.90
5394;DHT22;2720;52.396;10.064;2023-04-12T13:34:49;9.70;99.90
5394;DHT22;2720;52.396;10.064;2023-04-12T13:37:16;9.60;99.90
5394;DHT22;2720;52.396;10.064;2023-04-12T13:39:43;9.50;99.90
5394;DHT22;2720;52.396;10.064;2023-04-12T13:42:10;9.60;99.90
5394;DHT22;2720;52.396;10.064;2023-04-12T13:44:37;9.60;99.90
5394;DHT22;2720;52.396;10.064;2023-04-12T13:47:04;9.50;99.90
5394;DHT22;2720;52.396;10.064;2023-04-12T13:49:31;9.50;99.90
5394;DHT22;2720;52.396;10.064;2023-04-12T13:52:01;9.50;99.90
5394;DHT22;2720;52.396;10.064;2023-04-12T13:54:28;9.60;99.90
5394;DHT22;2720;52.396;10.064;2023-04-12T13:56:55;9.70;99.90
5394;DHT22;2720;52.396;10.064;2023-04-12T13:59:24;9.70;99.90
5394;DHT22;2720;52.396;10.064;2023-04-12T14:01:51;9.80;99.90
5394;DHT22;2720;52.396;10.064;2023-04-12T14:04:18;9.80;99.90
5394;DHT22;2720;52.396;10.064;2023-04-12T14:06:45;9.80;99.90
5394;DHT22;2720;52.396;10.064;2023-04-12T14:09:23;9.70;99.90
5394;DHT22;2720;52.396;10.064;2023-04-12T14:11:50;9.70;99.90
5394;DHT22;2720;52.396;10.064;2023-04-12T14:14:19;9.80;99.90
5394;DHT22;2720;52.396;10.064;2023-04-12T14:16:48;10.00;99.90
5394;DHT22;2720;52.396;10.064;2023-04-12T14:19:15;10.10;99.90
5394;DHT22;2720;52.396;10.064;2023-04-12T14:21:42;9.90;99.90
5394;DHT22;2720;52.396;10.064;2023-04-12T14:24:09;9.80;99.90
5394;DHT22;2720;52.396;10.064;2023-04-12T14:26:38;9.90;99.90
5394;DHT22;2720;52.396;10.064;2023-04-12T14:29:05;9.90;99.90
5394;DHT22;2720;52.396;10.064;2023-04-12T14:31:33;10.00;99.90
5394;DHT22;2720;52.396;10.064;2023-04-12T14:34:00;10.10;99.90
5394;DHT22;2720;52.396;10.064;2023-04-12T14:36:28;10.30;99.90
5394;DHT22;2720;52.396;10.064;2023-04-12T14:38:55;10.80;99.90
5394;DHT22;2720;52.396;10.064;2023-04-12T14:41:22;11.10;99.90
5394;DHT22;2720;52.396;10.064;2023-04-12T14:43:50;11.10;99.90
5394;DHT22;2720;52.396;10.064;2023-04-12T14:46:17;11.50;99.90
5394;DHT22;2720;52.396;10.064;2023-04-12T14:48:44;11.80;99.90
5394;DHT22;2720;52.396;10.064;2023-04-12T14:51:11;12.20;99.90
5394;DHT22;2720;52.396;10.064;2023-04-12T14:53:39;12.50;99.90
5394;DHT22;2720;52.396;10.064;2023-04-12T14:56:15;12.70;99.90
5394;DHT22;2720;52.396;10.064;2023-04-12T14:58:43;13.00;99.90
5394;DHT22;2720;52.396;10.064;2023-04-12T15:01:11;12.90;99.90
5394;DHT22;2720;52.396;10.064;2023-04-12T15:03:38;13.00;99.90
5394;DHT22;2720;52.396;10.064;2023-04-12T15:06:06;13.50;99.90
5394;DHT22;2720;52.396;10.064;2023-04-12T15:08:34;13.60;99.90
5394;DHT22;2720;52.396;10.064;2023-04-12T15:11:06;13.40;99.90
5394;DHT22;2720;52.396;10.064;2023-04-12T15:13:35;13.40;99.90
5394;DHT22;2720;52.396;10.064;2023-04-12T15:16:04;13.30;99.90
5394;DHT22;2720;52.396;10.064;2023-04-12T15:18:35;13.40;99.90
5394;DHT22;2720;52.396;10.064;2023-04-12T15:21:05;13.30;99.90
5394;DHT22;2720;52.396;10.064;2023-04-12T15:23:33;12.90;99.90
5394;DHT22;2720;52.396;10.064;2023-04-12T15:26:00;12.80;99.90
5394;DHT22;2720;52.396;10.064;2023-04-12T15:28:27;12.60;99.90
5394;DHT22;2720;52.396;10.064;2023-04-12T15:30:55;12.60;99.90
5394;DHT22;2720;52.396;10.064;2023-04-12T15:33:21;12.80;99.90
5394;DHT22;2720;52.396;10.064;2023-04-12T15:35:50;13.10;99.90
5394;DHT22;2720;52.396;10.064;2023-04-12T15:38:21;13.10;99.90
5394;DHT22;2720;52.396;10.064;2023-04-12T15:40:52;13.10;99.90
5394;DHT22;2720;52.396;10.064;2023-04-12T15:43:20;13.30;99.90
5394;DHT22;2720;52.396;10.064;2023-04-12T15:45:47;13.20;99.90
5394;DHT22;2720;52.396;10.064;2023-04-12T15:48:17;12.90;99.90
5394;DHT22;2720;52.396;10.064;2023-04-12T15:50:44;12.70;99.90
5394;DHT22;2720;52.396;10.064;2023-04-12T15:53:13;12.60;99.90
5394;DHT22;2720;52.396;10.064;2023-04-12T15:55:43;12.50;99.90
5394;DHT22;2720;52.396;10.064;2023-04-12T15:58:10;12.40;99.90
5394;DHT22;2720;52.396;10.064;2023-04-12T16:00:37;12.40;99.90
5394;DHT22;2720;52.396;10.064;2023-04-12T16:03:04;12.50;99.90
5394;DHT22;2720;52.396;10.064;2023-04-12T16:05:32;12.40;99.90
5394;DHT22;2720;52.396;10.064;2023-04-12T16:07:59;12.30;99.90
5394;DHT22;2720;52.396;10.064;2023-04-12T16:10:28;12.20;99.90